sensor_id;sensor_type;location;lat;lon;timestamp;temperature;humidity
12370;DHT22;6249;52.128;9.986;2022-11-24T00:02:00;7.00;99.90
12370;DHT22;6249;52.128;9.986;2022-11-24T00:05:21;7.10;99.90
12370;DHT22;6249;52.128;9.986;2022-11-24T00:08:47;7.10;99.90
12370;DHT22;6249;52.128;9.986;2022-11-24T00:12:10;7.10;99.90
12370;DHT22;6249;52.128;9.986;2022-11-24T00:15:30;7.20;99.90
12370;DHT22;6249;52.128;9.986;2022-11-24T00:18:52;7.20;99.90
12370;DHT22;6249;52.128;9.986;2022-11-24T00:22:13;7.20;99.90
12370;DHT22;6249;52.128;9.986;2022-11-24T00:25:34;7.10;99.90
12370;DHT22;6249;52.128;9.986;2022-11-24T00:28:59;7.10;99.90
12370;DHT22;6249;52.128;9.986;2022-11-24T00:32:20;7.10;99.90
12370;DHT22;6249;52.128;9.986;2022-11-24T00:35:41;7.10;99.90
12370;DHT22;6249;52.128;9.986;2022-11-24T00:39:11;7.10;99.90
12370;DHT22;6249;52.128;9.986;2022-11-24T00:42:32;7.00;99.90
12370;DHT22;6249;52.128;9.986;2022-11-24T00:45:52;7.10;99.90
12370;DHT22;6249;52.128;9.986;2022-11-24T00:49:13;7.00;99.90
12370;DHT22;6249;52.128;9.986;2022-11-24T00:52:34;7.10;99.90
12370;DHT22;6249;52.128;9.986;2022-11-24T00:55:57;7.10;99.90
12370;DHT22;6249;52.128;9.986;2022-11-24T00:59:19;7.00;99.90
12370;DHT22;6249;52.128;9.986;2022-11-24T01:02:43;7.10;99.90
12370;DHT22;6249;52.128;9.986;2022-11-24T01:06:06;7.00;99.90
12370;DHT22;6249;52.128;9.986;2022-11-24T01:09:31;7.20;99.90
12370;DHT22;6249;52.128;9.986;2022-11-24T01:12:52;7.10;99.90
12370;DHT22;6249;52.128;9.986;2022-11-24T01:16:30;7.20;99.90
12370;DHT22;6249;52.128;9.986;2022-11-24T01:19:52;7.30;99.90
12370;DHT22;6249;52.128;9.986;2022-11-24T01:23:15;7.00;99.90
12370;DHT22;6249;52.128;9.986;2022-11-24T01:26:36;7.00;99.90
12370;DHT22;6249;52.128;9.986;2022-11-24T01:29:57;7.00;99.90
12370;DHT22;6249;52.128;9.986;2022-11-24T01:33:17;7.00;99.90
12370;DHT22;6249;52.128;9.986;2022-11-24T01:36:38;7.00;99.90
12370;DHT22;6249;52.128;9.986;2022-11-24T01:39:59;7.00;99.90
12370;DHT22;6249;52.128;9.986;2022-11-24T01:43:22;6.90;99.90
12370;DHT22;6249;52.128;9.986;2022-11-24T01:46:49;6.90;99.90
12370;DHT22;6249;52.128;9.986;2022-11-24T01:50:15;6.90;99.90
12370;DHT22;6249;52.128;9.986;2022-11-24T01:53:37;6.90;99.90
12370;DHT22;6249;52.128;9.986;2022-11-24T01:57:04;7.00;99.90
12370;DHT22;6249;52.128;9.986;2022-11-24T02:00:29;6.80;99.90
12370;DHT22;6249;52.128;9.986;2022-11-24T02:03:51;6.80;99.90
12370;DHT22;6249;52.128;9.986;2022-11-24T02:07:12;6.70;99.90
12370;DHT22;6249;52.128;9.986;2022-11-24T02:10:34;6.70;99.90
12370;DHT22;6249;52.128;9.986;2022-11-24T02:13:58;6.80;99.90
12370;DHT22;6249;52.128;9.986;2022-11-24T02:17:21;6.70;99.90
12370;DHT22;6249;52.128;9.986;2022-11-24T02:20:44;6.80;99.90
12370;DHT22;6249;52.128;9.986;2022-11-24T02:27:34;6.80;99.90
12370;DHT22;6249;52.128;9.986;2022-11-24T02:30:59;6.90;99.90
12370;DHT22;6249;52.128;9.986;2022-11-24T02:34:20;6.90;99.90
12370;DHT22;6249;52.128;9.986;2022-11-24T02:37:41;6.80;99.90
12370;DHT22;6249;52.128;9.986;2022-11-24T02:41:10;6.80;99.90
12370;DHT22;6249;52.128;9.986;2022-11-24T02:44:37;6.80;99.90
12370;DHT22;6249;52.128;9.986;2022-11-24T02:47:58;6.80;99.90
12370;DHT22;6249;52.128;9.986;2022-11-24T02:51:19;6.80;99.90
12370;DHT22;6249;52.128;9.986;2022-11-24T02:54:44;6.70;99.90
12370;DHT22;6249;52.128;9.986;2022-11-24T02:58:05;6.80;99.90
12370;DHT22;6249;52.128;9.986;2022-11-24T03:01:26;6.90;99.90
12370;DHT22;6249;52.128;9.986;2022-11-24T03:04:46;6.80;99.90
12370;DHT22;6249;52.128;9.986;2022-11-24T03:08:07;6.90;99.90
12370;DHT22;6249;52.128;9.986;2022-11-24T03:11:28;6.90;99.90
12370;DHT22;6249;52.128;9.986;2022-11-24T03:14:48;6.90;99.90
12370;DHT22;6249;52.128;9.986;2022-11-24T03:18:09;6.80;99.90
12370;DHT22;6249;52.128;9.986;2022-11-24T03:21:32;6.90;99.90
12370;DHT22;6249;52.128;9.986;2022-11-24T03:24:55;6.90;99.90
12370;DHT22;6249;52.128;9.986;2022-11-24T03:28:15;6.90;99.90
12370;DHT22;6249;52.128;9.986;2022-11-24T03:31:38;6.90;99.90
12370;DHT22;6249;52.128;9.986;2022-11-24T03:34:59;6.90;99.90
12370;DHT22;6249;52.128;9.986;2022-11-24T03:38:20;6.90;99.90
12370;DHT22;6249;52.128;9.986;2022-11-24T03:41:40;7.00;99.90
12370;DHT22;6249;52.128;9.986;2022-11-24T03:45:04;7.00;99.90
12370;DHT22;6249;52.128;9.986;2022-11-24T03:48:30;7.00;99.90
12370;DHT22;6249;52.128;9.986;2022-11-24T03:51:51;7.20;99.90
12370;DHT22;6249;52.128;9.986;2022-11-24T03:55:11;7.10;99.90
12370;DHT22;6249;52.128;9.986;2022-11-24T03:58:32;7.00;99.90
12370;DHT22;6249;52.128;9.986;2022-11-24T04:01:53;7.10;99.90
12370;DHT22;6249;52.128;9.986;2022-11-24T04:05:14;7.10;99.90
12370;DHT22;6249;52.128;9.986;2022-11-24T04:08:34;7.20;99.90
12370;DHT22;6249;52.128;9.986;2022-11-24T04:11:55;7.20;99.90
12370;DHT22;6249;52.128;9.986;2022-11-24T04:15:34;7.20;99.90
12370;DHT22;6249;52.128;9.986;2022-11-24T04:18:56;7.20;99.90
12370;DHT22;6249;52.128;9.986;2022-11-24T04:22:17;7.30;99.90
12370;DHT22;6249;52.128;9.986;2022-11-24T04:25:40;7.30;99.90
12370;DHT22;6249;52.128;9.986;2022-11-24T04:29:03;7.30;99.90
12370;DHT22;6249;52.128;9.986;2022-11-24T04:32:23;7.30;99.90
12370;DHT22;6249;52.128;9.986;2022-11-24T04:35:44;7.30;99.90
12370;DHT22;6249;52.128;9.986;2022-11-24T04:39:05;7.20;99.90
12370;DHT22;6249;52.128;9.986;2022-11-24T04:42:26;7.10;99.90
12370;DHT22;6249;52.128;9.986;2022-11-24T04:45:49;7.10;99.90
12370;DHT22;6249;52.128;9.986;2022-11-24T04:49:12;7.00;99.90
12370;DHT22;6249;52.128;9.986;2022-11-24T04:52:32;6.90;99.90
12370;DHT22;6249;52.128;9.986;2022-11-24T04:55:56;7.00;99.90
12370;DHT22;6249;52.128;9.986;2022-11-24T04:59:16;7.10;99.90
12370;DHT22;6249;52.128;9.986;2022-11-24T05:02:40;7.00;99.90
12370;DHT22;6249;52.128;9.986;2022-11-24T05:06:00;6.80;99.90
12370;DHT22;6249;52.128;9.986;2022-11-24T05:09:25;6.70;99.90
12370;DHT22;6249;52.128;9.986;2022-11-24T05:12:56;6.70;99.90
12370;DHT22;6249;52.128;9.986;2022-11-24T05:16:21;6.60;99.90
12370;DHT22;6249;52.128;9.986;2022-11-24T05:19:42;6.50;99.90
12370;DHT22;6249;52.128;9.986;2022-11-24T05:23:04;6.50;99.90
12370;DHT22;6249;52.128;9.986;2022-11-24T05:26:26;6.60;99.90
12370;DHT22;6249;52.128;9.986;2022-11-24T05:29:46;6.50;99.90
12370;DHT22;6249;52.128;9.986;2022-11-24T05:33:16;6.50;99.90
12370;DHT22;6249;52.128;9.986;2022-11-24T05:36:44;6.50;99.90
12370;DHT22;6249;52.128;9.986;2022-11-24T05:40:15;6.50;99.90
12370;DHT22;6249;52.128;9.986;2022-11-24T05:43:36;6.50;99.90
12370;DHT22;6249;52.128;9.986;2022-11-24T05:46:57;6.40;99.90
12370;DHT22;6249;52.128;9.986;2022-11-24T05:50:21;6.40;99.90
12370;DHT22;6249;52.128;9.986;2022-11-24T05:53:44;6.40;99.90
12370;DHT22;6249;52.128;9.986;2022-11-24T05:57:05;6.30;99.90
12370;DHT22;6249;52.128;9.986;2022-11-24T06:00:26;6.30;99.90
12370;DHT22;6249;52.128;9.986;2022-11-24T06:03:47;6.40;99.90
12370;DHT22;6249;52.128;9.986;2022-11-24T06:07:10;6.30;99.90
12370;DHT22;6249;52.128;9.986;2022-11-24T06:10:33;6.20;99.90
12370;DHT22;6249;52.128;9.986;2022-11-24T06:13:58;6.40;99.90
12370;DHT22;6249;52.128;9.986;2022-11-24T06:17:25;6.40;99.90
12370;DHT22;6249;52.128;9.986;2022-11-24T06:20:48;6.50;99.90
12370;DHT22;6249;52.128;9.986;2022-11-24T06:24:11;6.50;99.90
12370;DHT22;6249;52.128;9.986;2022-11-24T06:27:34;6.50;99.90
12370;DHT22;6249;52.128;9.986;2022-11-24T06:31:02;6.60;99.90
12370;DHT22;6249;52.128;9.986;2022-11-24T06:34:23;6.70;99.90
12370;DHT22;6249;52.128;9.986;2022-11-24T06:37:44;6.90;99.90
12370;DHT22;6249;52.128;9.986;2022-11-24T06:41:08;6.80;99.90
12370;DHT22;6249;52.128;9.986;2022-11-24T06:44:31;6.70;99.90
12370;DHT22;6249;52.128;9.986;2022-11-24T06:47:55;6.90;99.90
12370;DHT22;6249;52.128;9.986;2022-11-24T06:51:15;7.10;99.90
12370;DHT22;6249;52.128;9.986;2022-11-24T06:54:38;6.90;99.90
12370;DHT22;6249;52.128;9.986;2022-11-24T06:58:01;7.00;99.90
12370;DHT22;6249;52.128;9.986;2022-11-24T07:01:24;7.10;99.90
12370;DHT22;6249;52.128;9.986;2022-11-24T07:04:45;7.10;99.90
12370;DHT22;6249;52.128;9.986;2022-11-24T07:08:05;7.10;99.90
12370;DHT22;6249;52.128;9.986;2022-11-24T07:11:26;7.00;99.90
12370;DHT22;6249;52.128;9.986;2022-11-24T07:14:46;7.00;99.90
12370;DHT22;6249;52.128;9.986;2022-11-24T07:18:07;7.00;99.90
12370;DHT22;6249;52.128;9.986;2022-11-24T07:21:28;7.20;99.90
12370;DHT22;6249;52.128;9.986;2022-11-24T07:24:50;7.20;99.90
12370;DHT22;6249;52.128;9.986;2022-11-24T07:28:13;7.20;99.90
12370;DHT22;6249;52.128;9.986;2022-11-24T07:31:33;7.40;99.90
12370;DHT22;6249;52.128;9.986;2022-11-24T07:34:54;7.40;99.90
12370;DHT22;6249;52.128;9.986;2022-11-24T07:38:15;7.40;99.90
12370;DHT22;6249;52.128;9.986;2022-11-24T07:41:37;7.40;99.90
12370;DHT22;6249;52.128;9.986;2022-11-24T07:45:00;7.40;99.90
12370;DHT22;6249;52.128;9.986;2022-11-24T07:48:23;7.50;99.90
12370;DHT22;6249;52.128;9.986;2022-11-24T07:51:44;7.70;99.90
12370;DHT22;6249;52.128;9.986;2022-11-24T07:55:06;7.80;99.90
12370;DHT22;6249;52.128;9.986;2022-11-24T07:58:30;7.80;99.90
12370;DHT22;6249;52.128;9.986;2022-11-24T08:01:52;7.80;99.90
12370;DHT22;6249;52.128;9.986;2022-11-24T08:05:12;7.80;99.90
12370;DHT22;6249;52.128;9.986;2022-11-24T08:08:35;7.80;99.90
12370;DHT22;6249;52.128;9.986;2022-11-24T08:12:01;7.90;99.90
12370;DHT22;6249;52.128;9.986;2022-11-24T08:15:22;7.80;99.90
12370;DHT22;6249;52.128;9.986;2022-11-24T08:18:43;7.90;99.90
12370;DHT22;6249;52.128;9.986;2022-11-24T08:22:12;8.00;99.90
12370;DHT22;6249;52.128;9.986;2022-11-24T08:25:35;8.00;99.90
12370;DHT22;6249;52.128;9.986;2022-11-24T08:28:59;8.10;99.90
12370;DHT22;6249;52.128;9.986;2022-11-24T08:32:20;8.10;99.90
12370;DHT22;6249;52.128;9.986;2022-11-24T08:35:42;8.10;99.90
12370;DHT22;6249;52.128;9.986;2022-11-24T08:39:05;8.20;99.90
12370;DHT22;6249;52.128;9.986;2022-11-24T08:42:26;8.50;99.90
12370;DHT22;6249;52.128;9.986;2022-11-24T08:45:50;8.70;99.90
12370;DHT22;6249;52.128;9.986;2022-11-24T08:49:10;9.00;99.90
12370;DHT22;6249;52.128;9.986;2022-11-24T08:52:33;9.40;99.90
12370;DHT22;6249;52.128;9.986;2022-11-24T08:55:58;9.50;99.90
12370;DHT22;6249;52.128;9.986;2022-11-24T08:59:19;9.40;99.90
12370;DHT22;6249;52.128;9.986;2022-11-24T09:02:42;9.50;99.90
12370;DHT22;6249;52.128;9.986;2022-11-24T09:06:03;9.40;99.90
12370;DHT22;6249;52.128;9.986;2022-11-24T09:09:24;9.20;99.90
12370;DHT22;6249;52.128;9.986;2022-11-24T09:12:46;9.20;99.90
12370;DHT22;6249;52.128;9.986;2022-11-24T09:16:17;9.30;99.90
12370;DHT22;6249;52.128;9.986;2022-11-24T09:19:41;9.50;99.90
12370;DHT22;6249;52.128;9.986;2022-11-24T09:23:01;9.50;99.90
12370;DHT22;6249;52.128;9.986;2022-11-24T09:26:26;9.70;99.90
12370;DHT22;6249;52.128;9.986;2022-11-24T09:29:47;9.90;99.90
12370;DHT22;6249;52.128;9.986;2022-11-24T09:33:10;10.20;99.90
12370;DHT22;6249;52.128;9.986;2022-11-24T09:36:33;10.50;99.90
12370;DHT22;6249;52.128;9.986;2022-11-24T09:39:54;10.50;99.90
12370;DHT22;6249;52.128;9.986;2022-11-24T09:43:39;10.40;99.90
12370;DHT22;6249;52.128;9.986;2022-11-24T09:50:45;10.10;99.90
12370;DHT22;6249;52.128;9.986;2022-11-24T09:54:12;10.00;99.90
12370;DHT22;6249;52.128;9.986;2022-11-24T09:57:37;10.10;99.90
12370;DHT22;6249;52.128;9.986;2022-11-24T10:04:42;10.00;99.90
12370;DHT22;6249;52.128;9.986;2022-11-24T10:12:15;10.20;99.90
12370;DHT22;6249;52.128;9.986;2022-11-24T10:26:53;10.50;99.90
12370;DHT22;6249;52.128;9.986;2022-11-24T10:30:21;10.50;99.90
12370;DHT22;6249;52.128;9.986;2022-11-24T10:33:43;10.50;99.90
12370;DHT22;6249;52.128;9.986;2022-11-24T10:37:22;10.50;99.90
12370;DHT22;6249;52.128;9.986;2022-11-24T10:40:56;10.50;99.90
12370;DHT22;6249;52.128;9.986;2022-11-24T10:44:19;10.50;99.90
12370;DHT22;6249;52.128;9.986;2022-11-24T10:47:41;10.70;99.90
12370;DHT22;6249;52.128;9.986;2022-11-24T10:51:30;10.60;99.90
12370;DHT22;6249;52.128;9.986;2022-11-24T10:54:59;10.80;99.90
12370;DHT22;6249;52.128;9.986;2022-11-24T10:58:36;10.90;99.90
12370;DHT22;6249;52.128;9.986;2022-11-24T11:01:58;11.00;99.90
12370;DHT22;6249;52.128;9.986;2022-11-24T11:12:28;11.60;99.90
12370;DHT22;6249;52.128;9.986;2022-11-24T11:15:52;11.60;99.90
12370;DHT22;6249;52.128;9.986;2022-11-24T11:19:45;11.90;99.90
12370;DHT22;6249;52.128;9.986;2022-11-24T11:23:15;12.50;99.90
12370;DHT22;6249;52.128;9.986;2022-11-24T11:26:42;13.80;99.90
12370;DHT22;6249;52.128;9.986;2022-11-24T11:30:19;14.60;99.90
12370;DHT22;6249;52.128;9.986;2022-11-24T11:33:56;14.80;99.90
12370;DHT22;6249;52.128;9.986;2022-11-24T11:37:18;15.10;99.90
12370;DHT22;6249;52.128;9.986;2022-11-24T11:40:39;15.10;99.90
12370;DHT22;6249;52.128;9.986;2022-11-24T11:44:28;14.50;99.90
12370;DHT22;6249;52.128;9.986;2022-11-24T11:47:51;14.40;99.90
12370;DHT22;6249;52.128;9.986;2022-11-24T11:55:47;13.00;99.90
12370;DHT22;6249;52.128;9.986;2022-11-24T11:59:29;12.50;99.90
12370;DHT22;6249;52.128;9.986;2022-11-24T12:03:23;12.30;99.90
12370;DHT22;6249;52.128;9.986;2022-11-24T12:10:27;13.00;99.90
12370;DHT22;6249;52.128;9.986;2022-11-24T12:21:53;12.40;99.90
12370;DHT22;6249;52.128;9.986;2022-11-24T12:28:51;11.90;99.90
12370;DHT22;6249;52.128;9.986;2022-11-24T12:33:10;11.80;99.90
12370;DHT22;6249;52.128;9.986;2022-11-24T12:36:45;11.60;99.90
12370;DHT22;6249;52.128;9.986;2022-11-24T12:44:01;11.70;99.90
12370;DHT22;6249;52.128;9.986;2022-11-24T12:51:16;11.80;99.90
12370;DHT22;6249;52.128;9.986;2022-11-24T12:54:41;11.70;99.90
12370;DHT22;6249;52.128;9.986;2022-11-24T13:09:25;11.60;99.90
12370;DHT22;6249;52.128;9.986;2022-11-24T13:13:15;11.50;99.90
12370;DHT22;6249;52.128;9.986;2022-11-24T13:16:58;11.30;99.90
12370;DHT22;6249;52.128;9.986;2022-11-24T13:27:27;10.90;99.90
12370;DHT22;6249;52.128;9.986;2022-11-24T13:31:09;10.90;99.90
12370;DHT22;6249;52.128;9.986;2022-11-24T13:38:00;10.80;99.90
12370;DHT22;6249;52.128;9.986;2022-11-24T13:45:07;10.70;99.90
12370;DHT22;6249;52.128;9.986;2022-11-24T13:59:30;10.60;99.90
12370;DHT22;6249;52.128;9.986;2022-11-24T14:02:59;10.60;99.90
12370;DHT22;6249;52.128;9.986;2022-11-24T14:06:33;10.50;99.90
12370;DHT22;6249;52.128;9.986;2022-11-24T14:09:57;10.40;99.90
12370;DHT22;6249;52.128;9.986;2022-11-24T14:13:44;10.40;99.90
12370;DHT22;6249;52.128;9.986;2022-11-24T14:20:31;10.50;99.90
12370;DHT22;6249;52.128;9.986;2022-11-24T14:23:55;10.50;99.90
12370;DHT22;6249;52.128;9.986;2022-11-24T14:27:20;10.40;99.90
12370;DHT22;6249;52.128;9.986;2022-11-24T14:30:42;10.30;99.90
12370;DHT22;6249;52.128;9.986;2022-11-24T14:34:16;10.30;99.90
12370;DHT22;6249;52.128;9.986;2022-11-24T14:37:39;10.30;99.90
12370;DHT22;6249;52.128;9.986;2022-11-24T14:41:22;10.40;99.90
12370;DHT22;6249;52.128;9.986;2022-11-24T14:48:15;10.30;99.90
12370;DHT22;6249;52.128;9.986;2022-11-24T14:51:42;10.30;99.90
12370;DHT22;6249;52.128;9.986;2022-11-24T14:55:04;10.30;99.90
12370;DHT22;6249;52.128;9.986;2022-11-24T14:58:33;10.30;99.90
12370;DHT22;6249;52.128;9.986;2022-11-24T15:01:55;10.10;99.90
12370;DHT22;6249;52.128;9.986;2022-11-24T15:05:18;10.10;99.90
12370;DHT22;6249;52.128;9.986;2022-11-24T15:08:45;10.10;99.90
12370;DHT22;6249;52.128;9.986;2022-11-24T15:12:22;10.10;99.90
12370;DHT22;6249;52.128;9.986;2022-11-24T15:15:51;10.20;99.90
12370;DHT22;6249;52.128;9.986;2022-11-24T15:19:13;10.00;99.90
12370;DHT22;6249;52.128;9.986;2022-11-24T15:22:43;9.90;99.90
12370;DHT22;6249;52.128;9.986;2022-11-24T15:29:28;9.80;99.90
12370;DHT22;6249;52.128;9.986;2022-11-24T15:32:50;9.70;99.90
12370;DHT22;6249;52.128;9.986;2022-11-24T15:36:15;9.80;99.90
12370;DHT22;6249;52.128;9.986;2022-11-24T15:39:36;9.60;99.90
12370;DHT22;6249;52.128;9.986;2022-11-24T15:42:56;9.60;99.90
12370;DHT22;6249;52.128;9.986;2022-11-24T15:46:20;9.50;99.90
12370;DHT22;6249;52.128;9.986;2022-11-24T15:49:40;9.50;99.90
12370;DHT22;6249;52.128;9.986;2022-11-24T15:53:02;9.50;99.90
12370;DHT22;6249;52.128;9.986;2022-11-24T15:56:29;9.60;99.90
12370;DHT22;6249;52.128;9.986;2022-11-24T15:59:51;9.50;99.90
12370;DHT22;6249;52.128;9.986;2022-11-24T16:03:14;9.50;99.90
12370;DHT22;6249;52.128;9.986;2022-11-24T16:06:38;9.50;99.90
12370;DHT22;6249;52.128;9.986;2022-11-24T16:10:04;9.50;99.90
12370;DHT22;6249;52.128;9.986;2022-11-24T16:13:25;9.50;99.90
12370;DHT22;6249;52.128;9.986;2022-11-24T16:16:49;9.40;99.90
12370;DHT22;6249;52.128;9.986;2022-11-24T16:20:10;9.40;99.90
12370;DHT22;6249;52.128;9.986;2022-11-24T16:23:30;9.50;99.90
12370;DHT22;6249;52.128;9.986;2022-11-24T16:26:51;9.40;99.90
12370;DHT22;6249;52.128;9.986;2022-11-24T16:30:12;9.40;99.90
12370;DHT22;6249;52.128;9.986;2022-11-24T16:33:32;9.50;99.90
12370;DHT22;6249;52.128;9.986;2022-11-24T16:36:53;9.40;99.90
12370;DHT22;6249;52.128;9.986;2022-11-24T16:40:14;9.30;99.90
12370;DHT22;6249;52.128;9.986;2022-11-24T16:43:34;9.30;99.90
12370;DHT22;6249;52.128;9.986;2022-11-24T16:46:57;9.10;99.90
12370;DHT22;6249;52.128;9.986;2022-11-24T16:50:18;9.00;99.90
12370;DHT22;6249;52.128;9.986;2022-11-24T16:53:41;8.90;99.90
12370;DHT22;6249;52.128;9.986;2022-11-24T16:57:02;8.80;99.90
12370;DHT22;6249;52.128;9.986;2022-11-24T17:00:28;8.70;99.90
12370;DHT22;6249;52.128;9.986;2022-11-24T17:03:48;8.70;99.90
12370;DHT22;6249;52.128;9.986;2022-11-24T17:07:09;8.60;99.90
12370;DHT22;6249;52.128;9.986;2022-11-24T17:10:30;8.50;99.90
12370;DHT22;6249;52.128;9.986;2022-11-24T17:13:50;8.40;99.90
12370;DHT22;6249;52.128;9.986;2022-11-24T17:17:11;8.30;99.90
12370;DHT22;6249;52.128;9.986;2022-11-24T17:20:32;8.20;99.90
12370;DHT22;6249;52.128;9.986;2022-11-24T17:23:57;8.10;99.90
12370;DHT22;6249;52.128;9.986;2022-11-24T17:27:17;8.10;99.90
12370;DHT22;6249;52.128;9.986;2022-11-24T17:30:38;7.90;99.90
12370;DHT22;6249;52.128;9.986;2022-11-24T17:33:59;7.90;99.90
12370;DHT22;6249;52.128;9.986;2022-11-24T17:37:20;7.90;99.90
12370;DHT22;6249;52.128;9.986;2022-11-24T17:40:46;7.90;99.90
12370;DHT22;6249;52.128;9.986;2022-11-24T17:44:09;8.00;99.90
12370;DHT22;6249;52.128;9.986;2022-11-24T17:47:36;8.00;99.90
12370;DHT22;6249;52.128;9.986;2022-11-24T17:51:02;8.00;99.90
12370;DHT22;6249;52.128;9.986;2022-11-24T17:54:25;7.90;99.90
12370;DHT22;6249;52.128;9.986;2022-11-24T17:57:46;7.90;99.90
12370;DHT22;6249;52.128;9.986;2022-11-24T18:01:07;7.80;99.90
12370;DHT22;6249;52.128;9.986;2022-11-24T18:04:27;7.80;99.90
12370;DHT22;6249;52.128;9.986;2022-11-24T18:07:51;7.60;99.90
12370;DHT22;6249;52.128;9.986;2022-11-24T18:11:19;7.30;99.90
12370;DHT22;6249;52.128;9.986;2022-11-24T18:14:42;7.30;99.90
12370;DHT22;6249;52.128;9.986;2022-11-24T18:18:03;7.20;99.90
12370;DHT22;6249;52.128;9.986;2022-11-24T18:21:24;7.00;99.90
12370;DHT22;6249;52.128;9.986;2022-11-24T18:24:49;7.00;99.90
12370;DHT22;6249;52.128;9.986;2022-11-24T18:28:12;6.90;99.90
12370;DHT22;6249;52.128;9.986;2022-11-24T18:31:33;6.80;99.90
12370;DHT22;6249;52.128;9.986;2022-11-24T18:34:54;6.80;99.90
12370;DHT22;6249;52.128;9.986;2022-11-24T18:38:15;6.80;99.90
12370;DHT22;6249;52.128;9.986;2022-11-24T18:41:40;6.70;99.90
12370;DHT22;6249;52.128;9.986;2022-11-24T18:45:04;6.60;99.90
12370;DHT22;6249;52.128;9.986;2022-11-24T18:48:25;6.60;99.90
12370;DHT22;6249;52.128;9.986;2022-11-24T18:51:45;6.50;99.90
12370;DHT22;6249;52.128;9.986;2022-11-24T18:55:09;6.50;99.90
12370;DHT22;6249;52.128;9.986;2022-11-24T18:58:30;6.40;99.90
12370;DHT22;6249;52.128;9.986;2022-11-24T19:01:51;6.40;99.90
12370;DHT22;6249;52.128;9.986;2022-11-24T19:05:12;6.20;99.90
12370;DHT22;6249;52.128;9.986;2022-11-24T19:08:35;6.20;99.90
12370;DHT22;6249;52.128;9.986;2022-11-24T19:11:55;6.30;99.90
12370;DHT22;6249;52.128;9.986;2022-11-24T19:15:16;6.40;99.90
12370;DHT22;6249;52.128;9.986;2022-11-24T19:18:37;6.50;99.90
12370;DHT22;6249;52.128;9.986;2022-11-24T19:21:57;6.50;99.90
12370;DHT22;6249;52.128;9.986;2022-11-24T19:25:20;6.30;99.90
12370;DHT22;6249;52.128;9.986;2022-11-24T19:28:41;6.20;99.90
12370;DHT22;6249;52.128;9.986;2022-11-24T19:32:01;6.10;99.90
12370;DHT22;6249;52.128;9.986;2022-11-24T19:35:22;6.10;99.90
12370;DHT22;6249;52.128;9.986;2022-11-24T19:38:53;6.00;99.90
12370;DHT22;6249;52.128;9.986;2022-11-24T19:42:16;5.90;99.90
12370;DHT22;6249;52.128;9.986;2022-11-24T19:45:37;5.90;99.90
12370;DHT22;6249;52.128;9.986;2022-11-24T19:49:03;5.80;99.90
12370;DHT22;6249;52.128;9.986;2022-11-24T19:52:24;5.80;99.90
12370;DHT22;6249;52.128;9.986;2022-11-24T19:55:44;5.80;99.90
12370;DHT22;6249;52.128;9.986;2022-11-24T19:59:05;5.90;99.90
12370;DHT22;6249;52.128;9.986;2022-11-24T20:02:28;5.90;99.90
12370;DHT22;6249;52.128;9.986;2022-11-24T20:05:56;5.90;99.90
12370;DHT22;6249;52.128;9.986;2022-11-24T20:09:17;6.00;99.90
12370;DHT22;6249;52.128;9.986;2022-11-24T20:12:40;5.90;99.90
12370;DHT22;6249;52.128;9.986;2022-11-24T20:16:11;5.80;99.90
12370;DHT22;6249;52.128;9.986;2022-11-24T20:19:32;5.70;99.90
12370;DHT22;6249;52.128;9.986;2022-11-24T20:22:52;5.60;99.90
12370;DHT22;6249;52.128;9.986;2022-11-24T20:26:17;5.60;99.90
12370;DHT22;6249;52.128;9.986;2022-11-24T20:29:42;5.60;99.90
12370;DHT22;6249;52.128;9.986;2022-11-24T20:33:05;5.50;99.90
12370;DHT22;6249;52.128;9.986;2022-11-24T20:36:29;5.60;99.90
12370;DHT22;6249;52.128;9.986;2022-11-24T20:39:53;5.60;99.90
12370;DHT22;6249;52.128;9.986;2022-11-24T20:43:16;5.50;99.90
12370;DHT22;6249;52.128;9.986;2022-11-24T20:46:38;5.60;99.90
12370;DHT22;6249;52.128;9.986;2022-11-24T20:49:59;5.60;99.90
12370;DHT22;6249;52.128;9.986;2022-11-24T20:53:22;5.60;99.90
12370;DHT22;6249;52.128;9.986;2022-11-24T20:56:43;5.60;99.90
12370;DHT22;6249;52.128;9.986;2022-11-24T21:00:09;5.50;99.90
12370;DHT22;6249;52.128;9.986;2022-11-24T21:03:31;5.50;99.90
12370;DHT22;6249;52.128;9.986;2022-11-24T21:06:52;5.50;99.90
12370;DHT22;6249;52.128;9.986;2022-11-24T21:10:15;5.50;99.90
12370;DHT22;6249;52.128;9.986;2022-11-24T21:13:36;5.50;99.90
12370;DHT22;6249;52.128;9.986;2022-11-24T21:17:02;5.40;99.90
12370;DHT22;6249;52.128;9.986;2022-11-24T21:20:23;5.40;99.90
12370;DHT22;6249;52.128;9.986;2022-11-24T21:23:43;5.30;99.90
12370;DHT22;6249;52.128;9.986;2022-11-24T21:27:04;5.30;99.90
12370;DHT22;6249;52.128;9.986;2022-11-24T21:30:25;5.30;99.90
12370;DHT22;6249;52.128;9.986;2022-11-24T21:33:51;5.30;99.90
12370;DHT22;6249;52.128;9.986;2022-11-24T21:37:12;5.20;99.90
12370;DHT22;6249;52.128;9.986;2022-11-24T21:40:33;5.30;99.90
12370;DHT22;6249;52.128;9.986;2022-11-24T21:43:54;5.40;99.90
12370;DHT22;6249;52.128;9.986;2022-11-24T21:47:17;5.40;99.90
12370;DHT22;6249;52.128;9.986;2022-11-24T21:50:38;5.30;99.90
12370;DHT22;6249;52.128;9.986;2022-11-24T21:54:01;5.30;99.90
12370;DHT22;6249;52.128;9.986;2022-11-24T21:57:26;5.40;99.90
12370;DHT22;6249;52.128;9.986;2022-11-24T22:00:47;5.50;99.90
12370;DHT22;6249;52.128;9.986;2022-11-24T22:04:08;5.50;99.90
12370;DHT22;6249;52.128;9.986;2022-11-24T22:07:32;5.60;99.90
12370;DHT22;6249;52.128;9.986;2022-11-24T22:10:54;5.60;99.90
12370;DHT22;6249;52.128;9.986;2022-11-24T22:14:19;5.60;99.90
12370;DHT22;6249;52.128;9.986;2022-11-24T22:17:41;5.50;99.90
12370;DHT22;6249;52.128;9.986;2022-11-24T22:21:03;5.40;99.90
12370;DHT22;6249;52.128;9.986;2022-11-24T22:24:26;5.40;99.90
12370;DHT22;6249;52.128;9.986;2022-11-24T22:27:49;5.50;99.90
12370;DHT22;6249;52.128;9.986;2022-11-24T22:31:13;5.50;99.90
12370;DHT22;6249;52.128;9.986;2022-11-24T22:34:37;5.50;99.90
12370;DHT22;6249;52.128;9.986;2022-11-24T22:37:57;5.50;99.90
12370;DHT22;6249;52.128;9.986;2022-11-24T22:41:18;5.60;99.90
12370;DHT22;6249;52.128;9.986;2022-11-24T22:44:39;5.50;99.90
12370;DHT22;6249;52.128;9.986;2022-11-24T22:48:02;5.40;99.90
12370;DHT22;6249;52.128;9.986;2022-11-24T22:51:26;5.30;99.90
12370;DHT22;6249;52.128;9.986;2022-11-24T22:54:49;5.30;99.90
12370;DHT22;6249;52.128;9.986;2022-11-24T22:58:09;5.40;99.90
12370;DHT22;6249;52.128;9.986;2022-11-24T23:01:31;5.40;99.90
12370;DHT22;6249;52.128;9.986;2022-11-24T23:04:58;5.50;99.90
12370;DHT22;6249;52.128;9.986;2022-11-24T23:08:18;5.60;99.90
12370;DHT22;6249;52.128;9.986;2022-11-24T23:11:42;5.60;99.90
12370;DHT22;6249;52.128;9.986;2022-11-24T23:15:05;5.50;99.90
12370;DHT22;6249;52.128;9.986;2022-11-24T23:18:26;5.30;99.90
12370;DHT22;6249;52.128;9.986;2022-11-24T23:21:49;5.20;99.90
12370;DHT22;6249;52.128;9.986;2022-11-24T23:25:12;5.10;99.90
12370;DHT22;6249;52.128;9.986;2022-11-24T23:28:35;5.00;99.90
12370;DHT22;6249;52.128;9.986;2022-11-24T23:31:59;4.90;99.90
12370;DHT22;6249;52.128;9.986;2022-11-24T23:35:21;4.90;99.90
12370;DHT22;6249;52.128;9.986;2022-11-24T23:38:43;4.80;99.90
12370;DHT22;6249;52.128;9.986;2022-11-24T23:42:04;4.80;99.90
12370;DHT22;6249;52.128;9.986;2022-11-24T23:45:24;4.90;99.90
12370;DHT22;6249;52.128;9.986;2022-11-24T23:48:45;4.90;99.90
12370;DHT22;6249;52.128;9.986;2022-11-24T23:52:06;5.10;99.90
12370;DHT22;6249;52.128;9.986;2022-11-24T23:55:29;5.00;99.90